North East, Pennsylvania
Current Conditions -  °F | °C
As of 8:51 AM on Wednesday 28 Jan 2015 (Local Time) from KERI Reporting Station
Clear Clear  
Wind Chill: -3°   Ceiling: Unl
Heat Index: 10°   Visibility: 10mi
Dew Point:   Wind: 9mph
Humidity: 84%   Direction: 220°SW
Pressure: 30.32"   Gusts: NA
Location:  42.22°N, 79.83°W
Report Text: KERI 281351Z 22008KT 10SM CLR M12/M14 A3032 RMK AO2 SLP283 T11221144
Loading
Personal Weather Stations






























Interactive Weather Map New forecast layout! Learn more

10-Day Weather Forecast

Advertisements
Track Severe Weather on mobile